createdAt,value
2018-03-11T00:00:10.655Z,10.90
2018-03-11T00:02:39.555Z,11.67
2018-03-11T00:05:08.450Z,11.50
2018-03-11T00:07:37.336Z,11.03
2018-03-11T00:10:05.471Z,10.03
2018-03-11T00:12:33.642Z,10.03
2018-03-11T00:15:02.574Z,10.73
2018-03-11T00:17:30.801Z,12.40
2018-03-11T00:19:59.105Z,10.57
2018-03-11T00:22:27.201Z,11.37
2018-03-11T00:24:55.372Z,11.27
2018-03-11T00:27:23.549Z,12.13
2018-03-11T00:29:51.665Z,11.03
2018-03-11T00:32:19.782Z,10.37
2018-03-11T00:34:47.936Z,10.80
2018-03-11T00:37:16.093Z,11.00
2018-03-11T00:39:44.243Z,10.70
2018-03-11T00:42:12.404Z,11.60
2018-03-11T00:44:40.562Z,10.30
2018-03-11T00:47:08.690Z,9.77
2018-03-11T00:49:36.800Z,9.87
2018-03-11T00:52:04.897Z,8.70
2018-03-11T00:54:33.021Z,9.20
2018-03-11T00:57:01.119Z,10.10
2018-03-11T00:59:29.212Z,9.40
2018-03-11T01:01:57.364Z,9.00
2018-03-11T01:04:25.484Z,9.97
2018-03-11T01:06:53.588Z,9.93
2018-03-11T01:09:21.707Z,9.20
2018-03-11T01:11:49.856Z,9.63
2018-03-11T01:14:18.028Z,9.50
2018-03-11T01:16:46.205Z,9.70
2018-03-11T01:19:14.280Z,10.67
2018-03-11T01:21:42.619Z,11.03
2018-03-11T01:24:10.725Z,9.37
2018-03-11T01:26:38.836Z,9.97
2018-03-11T01:29:07.797Z,9.63
2018-03-11T01:31:35.916Z,8.90
2018-03-11T01:34:04.788Z,9.47
2018-03-11T01:36:32.932Z,9.77
2018-03-11T01:39:01.046Z,10.23
2018-03-11T01:41:29.261Z,8.73
2018-03-11T01:43:57.406Z,9.27
2018-03-11T01:46:25.530Z,9.10
2018-03-11T01:48:53.664Z,7.93
2018-03-11T01:51:21.943Z,8.90
2018-03-11T01:53:50.074Z,7.67
2018-03-11T01:56:18.156Z,8.50
2018-03-11T01:58:46.248Z,9.17
2018-03-11T02:01:14.362Z,9.90
2018-03-11T02:03:43.241Z,8.93
2018-03-11T02:06:11.360Z,9.50
2018-03-11T02:08:39.511Z,9.10
2018-03-11T02:11:07.637Z,9.23
2018-03-11T02:13:35.886Z,10.27
2018-03-11T02:16:04.028Z,10.30
2018-03-11T02:18:32.176Z,10.87
2018-03-11T02:21:00.371Z,10.80
2018-03-11T02:23:29.261Z,10.17
2018-03-11T02:25:57.367Z,10.67
2018-03-11T02:28:25.533Z,11.20
2018-03-11T02:30:53.659Z,11.53
2018-03-11T02:33:21.783Z,12.37
2018-03-11T02:35:49.921Z,14.13
2018-03-11T02:38:18.090Z,11.50
2018-03-11T02:40:46.229Z,13.20
2018-03-11T02:43:14.354Z,11.70
2018-03-11T02:45:43.256Z,11.30
2018-03-11T02:48:12.129Z,14.60
2018-03-11T02:50:40.304Z,12.97
2018-03-11T02:53:08.423Z,12.90
2018-03-11T02:55:36.640Z,14.03
2018-03-11T02:58:04.782Z,11.97
2018-03-11T03:00:32.998Z,11.53
2018-03-11T03:03:01.935Z,11.40
2018-03-11T03:05:30.090Z,11.37
2018-03-11T03:07:59.024Z,11.03
2018-03-11T03:10:27.142Z,11.90
2018-03-11T03:12:55.265Z,12.77
2018-03-11T03:15:23.415Z,12.87
2018-03-11T03:17:51.558Z,13.50
2018-03-11T03:20:19.697Z,13.47
2018-03-11T03:22:47.836Z,15.27
2018-03-11T03:25:16.002Z,13.47
2018-03-11T03:27:44.151Z,16.07
2018-03-11T03:30:12.268Z,14.97
2018-03-11T03:32:40.420Z,16.77
2018-03-11T03:35:08.577Z,16.27
2018-03-11T03:37:36.695Z,16.20
2018-03-11T03:40:04.834Z,16.03
2018-03-11T03:42:32.965Z,15.97
2018-03-11T03:45:01.075Z,13.70
2018-03-11T03:47:30.049Z,13.50
2018-03-11T03:49:58.180Z,11.70
2018-03-11T03:52:26.303Z,12.23
2018-03-11T03:54:54.479Z,14.57
2018-03-11T03:57:22.649Z,14.33
2018-03-11T03:59:50.765Z,12.23
2018-03-11T04:02:18.977Z,12.60
2018-03-11T04:04:47.142Z,11.10
2018-03-11T04:07:15.272Z,11.73
2018-03-11T04:09:44.160Z,11.13
2018-03-11T04:12:13.037Z,10.83
2018-03-11T04:14:41.171Z,9.80
2018-03-11T04:17:09.338Z,10.40
2018-03-11T04:19:38.233Z,10.17
2018-03-11T04:22:06.330Z,11.20
2018-03-11T04:24:34.460Z,12.20
2018-03-11T04:27:02.714Z,11.23
2018-03-11T04:29:31.629Z,13.73
2018-03-11T04:31:59.768Z,12.83
2018-03-11T04:34:27.923Z,11.63
2018-03-11T04:36:56.071Z,11.40
2018-03-11T04:39:25.012Z,12.67
2018-03-11T04:41:53.218Z,12.93
2018-03-11T04:44:21.355Z,12.77
2018-03-11T04:46:50.257Z,12.43
2018-03-11T04:49:18.636Z,11.77
2018-03-11T04:51:46.747Z,11.03
2018-03-11T04:54:14.896Z,13.63
2018-03-11T04:56:42.992Z,13.57
2018-03-11T04:59:11.902Z,12.83
2018-03-11T05:01:40.040Z,12.30
2018-03-11T05:04:08.138Z,15.13
2018-03-11T05:06:36.331Z,12.87
2018-03-11T05:09:04.745Z,13.17
2018-03-11T05:11:33.617Z,12.93
2018-03-11T05:14:01.807Z,12.00
2018-03-11T05:16:29.916Z,14.47
2018-03-11T05:18:58.859Z,13.07
2018-03-11T05:21:26.961Z,14.13
2018-03-11T05:23:55.070Z,15.17
2018-03-11T05:26:23.177Z,15.20
2018-03-11T05:28:52.104Z,14.37
2018-03-11T05:31:20.258Z,13.13
2018-03-11T05:33:48.412Z,14.73
2018-03-11T05:36:16.550Z,12.80
2018-03-11T05:38:45.524Z,12.63
2018-03-11T05:41:13.668Z,12.03
2018-03-11T05:43:41.806Z,13.37
2018-03-11T05:46:10.703Z,15.50
2018-03-11T05:48:38.888Z,14.23
2018-03-11T05:51:07.204Z,13.30
2018-03-11T05:53:36.165Z,14.23
2018-03-11T05:56:04.300Z,12.87
2018-03-11T05:58:33.172Z,15.33
2018-03-11T06:01:01.363Z,15.73
2018-03-11T06:03:29.496Z,17.53
2018-03-11T06:05:57.713Z,15.57
2018-03-11T06:08:25.838Z,16.03
2018-03-11T06:10:53.973Z,14.00
2018-03-11T06:13:22.159Z,11.07
2018-03-11T06:15:50.282Z,10.27
2018-03-11T06:18:18.638Z,8.30
2018-03-11T06:20:46.729Z,9.30
2018-03-11T06:23:14.848Z,7.80
2018-03-11T06:25:43.740Z,6.83
2018-03-11T06:28:11.875Z,6.40
2018-03-11T06:30:40.029Z,5.97
2018-03-11T06:33:08.907Z,6.40
2018-03-11T06:35:37.008Z,6.17
2018-03-11T06:38:05.145Z,7.20
2018-03-11T06:40:33.287Z,6.43
2018-03-11T06:43:01.443Z,6.93
2018-03-11T06:45:29.532Z,6.97
2018-03-11T06:47:57.652Z,7.50
2018-03-11T06:50:26.561Z,7.70
2018-03-11T06:52:54.704Z,8.53
2018-03-11T06:55:22.849Z,9.27
2018-03-11T06:57:51.023Z,8.10
2018-03-11T07:00:19.217Z,7.27
2018-03-11T07:02:47.356Z,7.83
2018-03-11T07:05:15.525Z,7.67
2018-03-11T07:07:43.646Z,7.13
2018-03-11T07:10:11.729Z,7.50
2018-03-11T07:12:39.928Z,8.53
2018-03-11T07:15:08.020Z,8.10
2018-03-11T07:17:36.917Z,8.33
2018-03-11T07:20:05.867Z,8.10
2018-03-11T07:22:33.968Z,9.27
2018-03-11T07:25:02.136Z,8.60
2018-03-11T07:27:30.235Z,8.23
2018-03-11T07:29:58.400Z,9.30
2018-03-11T07:32:26.529Z,9.57
2018-03-11T07:34:54.694Z,9.07
2018-03-11T07:37:22.836Z,7.93
2018-03-11T07:39:50.995Z,8.90
2018-03-11T07:42:19.114Z,8.70
2018-03-11T07:44:47.272Z,8.57
2018-03-11T07:47:16.153Z,9.03
2018-03-11T07:49:44.273Z,9.20
2018-03-11T07:52:12.442Z,7.20
2018-03-11T07:54:40.604Z,7.10
2018-03-11T07:57:08.725Z,7.93
2018-03-11T07:59:37.664Z,7.30
2018-03-11T08:02:05.761Z,6.50
2018-03-11T08:04:33.892Z,7.70
2018-03-11T08:07:02.789Z,6.93
2018-03-11T08:09:31.712Z,6.73
2018-03-11T08:11:59.821Z,6.27
2018-03-11T08:14:27.996Z,6.33
2018-03-11T08:16:56.068Z,6.43
2018-03-11T08:19:24.212Z,5.47
2018-03-11T08:21:52.354Z,5.57
2018-03-11T08:24:20.544Z,5.67
2018-03-11T08:26:48.644Z,6.33
2018-03-11T08:29:16.814Z,7.63
2018-03-11T08:31:44.938Z,7.07
2018-03-11T08:34:13.084Z,5.40
2018-03-11T08:36:41.222Z,5.03
2018-03-11T08:39:09.354Z,5.27
2018-03-11T08:41:37.476Z,6.33
2018-03-11T08:44:05.612Z,6.80
2018-03-11T08:46:33.780Z,6.13
2018-03-11T08:49:02.726Z,7.40
2018-03-11T08:51:30.846Z,6.20
2018-03-11T08:53:58.985Z,5.80
2018-03-11T08:56:27.100Z,6.77
2018-03-11T08:58:55.326Z,6.47
2018-03-11T09:01:23.489Z,5.97
2018-03-11T09:03:51.597Z,6.50
2018-03-11T09:06:19.757Z,6.33
2018-03-11T09:08:47.891Z,6.23
2018-03-11T09:11:16.071Z,6.10
2018-03-11T09:13:44.206Z,7.00
2018-03-11T09:16:12.336Z,7.00
2018-03-11T09:18:41.233Z,5.57
2018-03-11T09:21:10.121Z,3.43
2018-03-11T09:23:38.258Z,3.30
2018-03-11T09:26:06.490Z,3.33
2018-03-11T09:28:34.628Z,3.30
2018-03-11T09:31:02.813Z,3.00
2018-03-11T09:33:30.953Z,3.90
2018-03-11T09:35:59.490Z,4.50
2018-03-11T09:38:27.595Z,3.60
2018-03-11T09:40:55.796Z,3.30
2018-03-11T09:43:23.900Z,3.00
2018-03-11T09:45:52.060Z,3.57
2018-03-11T09:48:20.182Z,3.07
2018-03-11T09:50:49.091Z,3.40
2018-03-11T09:53:17.943Z,4.07
2018-03-11T09:55:46.072Z,6.13
2018-03-11T09:58:14.972Z,2.77
2018-03-11T10:00:43.103Z,2.47
2018-03-11T10:03:11.218Z,2.90
2018-03-11T10:05:39.336Z,2.90
2018-03-11T10:08:07.480Z,2.53
2018-03-11T10:10:35.633Z,2.50
2018-03-11T10:13:04.488Z,2.40
2018-03-11T10:15:32.638Z,2.40
2018-03-11T10:18:00.775Z,4.80
2018-03-11T10:20:28.881Z,2.50
2018-03-11T10:22:57.771Z,2.40
2018-03-11T10:25:25.851Z,2.70
2018-03-11T10:27:54.783Z,4.00
2018-03-11T10:30:22.882Z,3.00
2018-03-11T10:32:51.001Z,2.67
2018-03-11T10:35:19.097Z,2.23
2018-03-11T10:37:48.037Z,3.20
2018-03-11T10:40:16.936Z,4.33
2018-03-11T10:42:45.839Z,4.67
2018-03-11T10:45:14.723Z,5.40
2018-03-11T10:47:42.865Z,5.10
2018-03-11T10:50:10.973Z,4.80
2018-03-11T10:52:39.142Z,5.17
2018-03-11T10:55:07.282Z,5.20
2018-03-11T10:57:35.453Z,3.83
2018-03-11T11:00:03.565Z,3.93
2018-03-11T11:02:36.534Z,4.97
2018-03-11T11:05:04.656Z,5.10
2018-03-11T11:07:32.751Z,4.93
2018-03-11T11:10:00.878Z,4.73
2018-03-11T11:12:29.073Z,5.50
2018-03-11T11:14:57.217Z,4.83
2018-03-11T11:17:26.875Z,4.60
2018-03-11T11:19:55.095Z,4.80
2018-03-11T11:22:23.970Z,4.83
2018-03-11T11:24:52.105Z,3.87
2018-03-11T11:27:20.197Z,4.37
2018-03-11T11:29:48.314Z,4.50
2018-03-11T11:32:16.448Z,4.70
2018-03-11T11:34:44.592Z,4.73
2018-03-11T11:37:12.683Z,4.80
2018-03-11T11:39:41.547Z,5.43
2018-03-11T11:42:09.704Z,5.20
2018-03-11T11:44:37.821Z,4.63
2018-03-11T11:47:05.917Z,4.10
2018-03-11T11:49:34.015Z,4.90
2018-03-11T11:52:02.198Z,4.50
2018-03-11T11:54:30.344Z,4.23
2018-03-11T11:56:58.821Z,4.10
2018-03-11T11:59:27.057Z,4.40
2018-03-11T12:01:55.161Z,4.30
2018-03-11T12:04:23.318Z,3.70
2018-03-11T12:06:51.455Z,4.10
2018-03-11T12:09:20.335Z,3.37
2018-03-11T12:11:48.527Z,3.43
2018-03-11T12:14:16.661Z,3.70
2018-03-11T12:16:44.791Z,3.87
2018-03-11T12:19:12.945Z,2.73
2018-03-11T12:21:41.048Z,2.70
2018-03-11T12:24:09.195Z,3.40
2018-03-11T12:26:37.314Z,5.40
2018-03-11T12:29:05.453Z,5.30
2018-03-11T12:31:34.354Z,5.07
2018-03-11T12:34:03.358Z,5.27
2018-03-11T12:36:32.229Z,5.30
2018-03-11T12:39:00.365Z,5.80
2018-03-11T12:41:28.872Z,4.77
2018-03-11T12:43:57.020Z,5.47
2018-03-11T12:46:25.913Z,4.40
2018-03-11T12:48:54.778Z,4.20
2018-03-11T12:51:22.899Z,3.90
2018-03-11T12:53:51.020Z,4.67
2018-03-11T12:56:19.156Z,4.50
2018-03-11T12:58:47.322Z,4.53
2018-03-11T13:01:15.452Z,4.43
2018-03-11T13:03:44.336Z,3.60
2018-03-11T13:06:12.506Z,4.70
2018-03-11T13:08:40.663Z,3.90
2018-03-11T13:11:08.804Z,3.90
2018-03-11T13:13:36.910Z,4.30
2018-03-11T13:16:05.793Z,4.30
2018-03-11T13:18:34.684Z,4.73
2018-03-11T13:21:08.958Z,3.80
2018-03-11T13:23:37.133Z,3.90
2018-03-11T13:26:06.063Z,3.70
2018-03-11T13:28:46.083Z,4.27
2018-03-11T13:31:14.180Z,5.07
2018-03-11T13:33:55.012Z,5.83
2018-03-11T13:36:23.200Z,4.40
2018-03-11T13:40:11.001Z,4.90
2018-03-11T13:42:39.072Z,4.47
2018-03-11T13:45:19.057Z,4.47
2018-03-11T13:47:47.931Z,6.33
2018-03-11T13:50:15.949Z,5.13
2018-03-11T13:52:56.510Z,7.77
2018-03-11T13:55:25.332Z,4.47
2018-03-11T13:58:05.177Z,4.67
2018-03-11T14:00:33.231Z,4.83
2018-03-11T14:03:01.287Z,4.60
2018-03-11T14:05:29.404Z,3.80
2018-03-11T14:07:57.426Z,3.63
2018-03-11T14:10:26.249Z,3.90
2018-03-11T14:12:54.296Z,3.70
2018-03-11T14:15:23.129Z,3.90
2018-03-11T14:17:51.220Z,4.07
2018-03-11T14:20:19.281Z,4.77
2018-03-11T14:22:47.344Z,5.10
2018-03-11T14:25:15.424Z,5.33
2018-03-11T14:27:43.493Z,4.60
2018-03-11T14:30:11.564Z,5.97
2018-03-11T14:32:39.627Z,5.70
2018-03-11T14:35:07.689Z,9.80
2018-03-11T14:37:35.759Z,13.17
2018-03-11T14:40:04.606Z,10.30
2018-03-11T14:42:32.658Z,7.60
2018-03-11T14:45:01.624Z,9.47
2018-03-11T14:47:29.694Z,8.30
2018-03-11T14:49:57.754Z,8.07
2018-03-11T14:52:25.814Z,7.73
2018-03-11T14:54:53.870Z,8.00
2018-03-11T14:57:21.936Z,9.17
2018-03-11T14:59:49.994Z,8.33
2018-03-11T15:02:18.055Z,8.83
2018-03-11T15:04:46.116Z,8.07
2018-03-11T15:07:14.952Z,9.30
2018-03-11T15:09:43.021Z,9.63
2018-03-11T15:12:11.079Z,9.63
2018-03-11T15:14:39.916Z,8.03
2018-03-11T15:17:08.003Z,6.53
2018-03-11T15:19:36.056Z,8.03
2018-03-11T15:22:04.887Z,5.50
2018-03-11T15:24:32.942Z,5.03
2018-03-11T15:27:01.779Z,4.87
2018-03-11T15:29:29.837Z,6.10
2018-03-11T15:31:58.666Z,5.80
2018-03-11T15:34:26.729Z,6.30
2018-03-11T15:36:54.799Z,5.73
2018-03-11T15:39:23.616Z,5.83
2018-03-11T15:41:51.684Z,7.60
2018-03-11T15:44:20.508Z,7.70
2018-03-11T15:46:48.568Z,6.53
2018-03-11T15:49:17.400Z,5.40
2018-03-11T15:51:45.504Z,7.40
2018-03-11T15:54:13.569Z,6.23
2018-03-11T15:56:41.639Z,6.93
2018-03-11T15:59:10.459Z,8.93
2018-03-11T16:01:38.523Z,7.80
2018-03-11T16:04:06.652Z,15.50
2018-03-11T16:06:34.701Z,6.90
2018-03-11T16:09:02.776Z,5.63
2018-03-11T16:11:30.840Z,6.20
2018-03-11T16:13:58.895Z,6.00
2018-03-11T16:16:26.953Z,6.00
2018-03-11T16:18:55.015Z,5.83
2018-03-11T16:21:23.080Z,5.50
2018-03-11T16:23:51.899Z,5.50
2018-03-11T16:26:19.967Z,5.20
2018-03-11T16:28:48.044Z,6.00
2018-03-11T16:31:16.889Z,5.60
2018-03-11T16:33:44.969Z,5.43
2018-03-11T16:36:13.031Z,4.90
2018-03-11T16:38:41.854Z,5.90
2018-03-11T16:41:09.924Z,5.83
2018-03-11T16:43:38.037Z,6.37
2018-03-11T16:46:06.134Z,5.23
2018-03-11T16:48:34.899Z,5.93
2018-03-11T16:51:02.952Z,5.70
2018-03-11T16:53:31.784Z,6.50
2018-03-11T16:55:59.843Z,7.57
2018-03-11T16:58:28.671Z,5.73
2018-03-11T17:00:56.736Z,6.60
2018-03-11T17:03:25.588Z,6.10
2018-03-11T17:05:53.665Z,6.70
2018-03-11T17:08:21.734Z,6.27
2018-03-11T17:10:49.799Z,6.03
2018-03-11T17:13:18.627Z,6.00
2018-03-11T17:15:46.697Z,6.50
2018-03-11T17:18:14.767Z,6.33
2018-03-11T17:20:43.602Z,7.07
2018-03-11T17:23:11.686Z,7.10
2018-03-11T17:25:39.782Z,7.23
2018-03-11T17:28:07.823Z,8.83
2018-03-11T17:30:35.895Z,8.90
2018-03-11T17:33:04.720Z,19.47
2018-03-11T17:35:32.793Z,11.63
2018-03-11T17:38:01.024Z,13.50
2018-03-11T17:40:29.083Z,12.60
2018-03-11T17:42:57.152Z,13.20
2018-03-11T17:45:25.228Z,16.90
2018-03-11T17:47:54.067Z,15.63
2018-03-11T17:50:22.130Z,11.07
2018-03-11T17:52:50.200Z,8.57
2018-03-11T17:55:19.025Z,10.87
2018-03-11T17:57:47.102Z,9.80
2018-03-11T18:00:15.169Z,8.07
2018-03-11T18:02:43.219Z,8.60
2018-03-11T18:05:11.295Z,7.90
2018-03-11T18:07:39.358Z,9.77
2018-03-11T18:10:07.433Z,7.30
2018-03-11T18:12:35.525Z,7.77
2018-03-11T18:15:03.543Z,10.20
2018-03-11T18:17:31.608Z,8.40
2018-03-11T18:19:59.669Z,8.40
2018-03-11T18:22:27.730Z,8.37
2018-03-11T18:24:55.795Z,8.13
2018-03-11T18:27:23.851Z,6.90
2018-03-11T18:29:51.918Z,6.47
2018-03-11T18:32:19.978Z,6.90
2018-03-11T18:34:48.047Z,8.03
2018-03-11T18:37:16.859Z,8.10
2018-03-11T18:39:44.921Z,9.43
2018-03-11T18:42:13.740Z,8.40
2018-03-11T18:44:42.570Z,6.47
2018-03-11T18:47:10.638Z,8.07
2018-03-11T18:49:38.708Z,7.03
2018-03-11T18:52:06.776Z,8.27
2018-03-11T18:54:34.904Z,8.07
2018-03-11T18:57:02.989Z,8.80
2018-03-11T18:59:31.022Z,9.70
2018-03-11T19:01:59.864Z,9.13
2018-03-11T19:04:28.683Z,10.13
2018-03-11T19:06:56.745Z,10.50
2018-03-11T19:09:24.821Z,9.17
2018-03-11T19:11:53.635Z,9.97
2018-03-11T19:14:21.690Z,11.03
2018-03-11T19:16:50.521Z,9.57
2018-03-11T19:19:18.575Z,10.83
2018-03-11T19:21:46.632Z,10.97
2018-03-11T19:24:14.689Z,27.07
2018-03-11T19:26:42.759Z,9.53
2018-03-11T19:29:10.841Z,8.70
2018-03-11T19:31:39.632Z,8.80
2018-03-11T19:34:07.700Z,10.03
2018-03-11T19:36:36.520Z,8.50
2018-03-11T19:39:04.584Z,11.00
2018-03-11T19:41:33.417Z,9.30
2018-03-11T19:44:01.467Z,9.20
2018-03-11T19:46:30.279Z,9.87
2018-03-11T19:48:58.337Z,9.13
2018-03-11T19:51:26.387Z,9.30
2018-03-11T19:53:54.443Z,10.40
2018-03-11T19:56:22.520Z,12.50
2018-03-11T19:58:50.657Z,11.37
2018-03-11T20:01:18.784Z,13.70
2018-03-11T20:03:47.669Z,12.07
2018-03-11T20:06:15.846Z,12.90
2018-03-11T20:08:43.998Z,12.50
2018-03-11T20:11:12.169Z,15.23
2018-03-11T20:13:40.257Z,14.13
2018-03-11T20:16:08.463Z,12.87
2018-03-11T20:18:36.470Z,10.60
2018-03-11T20:21:04.580Z,11.33
2018-03-11T20:23:33.463Z,9.63
2018-03-11T20:26:01.700Z,11.27
2018-03-11T20:28:29.815Z,14.40
2018-03-11T20:30:58.027Z,14.37
2018-03-11T20:33:26.176Z,13.67
2018-03-11T20:35:54.334Z,11.97
2018-03-11T20:38:22.528Z,14.73
2018-03-11T20:40:51.524Z,11.73
2018-03-11T20:43:20.393Z,12.27
2018-03-11T20:45:48.573Z,11.57
2018-03-11T20:48:16.760Z,10.67
2018-03-11T20:50:44.812Z,9.07
2018-03-11T20:53:13.005Z,10.83
2018-03-11T20:55:41.133Z,13.27
2018-03-11T20:58:09.245Z,12.73
2018-03-11T21:00:37.444Z,11.90
2018-03-11T21:03:05.600Z,13.00
2018-03-11T21:05:33.697Z,13.60
2018-03-11T21:08:01.856Z,12.63
2018-03-11T21:10:29.970Z,13.37
2018-03-11T21:12:58.144Z,13.03
2018-03-11T21:15:27.074Z,15.80
2018-03-11T21:17:55.207Z,14.83
2018-03-11T21:20:23.317Z,22.67
2018-03-11T21:22:51.473Z,14.30
2018-03-11T21:25:19.621Z,16.07
2018-03-11T21:27:47.739Z,16.83
2018-03-11T21:30:27.726Z,15.57
2018-03-11T21:32:55.939Z,18.03
2018-03-11T21:35:24.059Z,14.20
2018-03-11T21:37:52.292Z,18.33
2018-03-11T21:40:20.453Z,15.33
2018-03-11T21:42:49.574Z,11.97
2018-03-11T21:45:17.722Z,10.83
2018-03-11T21:47:45.835Z,12.83
2018-03-11T21:50:13.967Z,14.73
2018-03-11T21:52:42.131Z,20.33
2018-03-11T21:55:11.035Z,14.10
2018-03-11T21:57:39.155Z,15.93
2018-03-11T22:00:07.280Z,13.47
2018-03-11T22:02:35.420Z,13.80
2018-03-11T22:05:03.609Z,13.43
2018-03-11T22:07:31.731Z,13.30
2018-03-11T22:09:59.835Z,18.07
2018-03-11T22:12:27.977Z,17.77
2018-03-11T22:14:56.113Z,32.60
2018-03-11T22:17:24.238Z,16.07
2018-03-11T22:19:52.432Z,16.37
2018-03-11T22:22:20.568Z,14.50
2018-03-11T22:24:48.928Z,18.27
2018-03-11T22:27:17.053Z,15.40
2018-03-11T22:29:45.931Z,17.40
2018-03-11T22:32:14.092Z,18.80
2018-03-11T22:34:42.256Z,19.80
2018-03-11T22:37:10.368Z,15.30
2018-03-11T22:39:38.558Z,16.83
2018-03-11T22:42:07.009Z,14.07
2018-03-11T22:44:35.942Z,14.20
2018-03-11T22:47:04.071Z,12.33
2018-03-11T22:49:32.256Z,14.17
2018-03-11T22:52:00.447Z,14.10
2018-03-11T22:54:30.247Z,11.63
2018-03-11T22:56:58.349Z,13.57
2018-03-11T22:59:26.762Z,14.40
2018-03-11T23:01:54.917Z,13.90
2018-03-11T23:04:23.049Z,14.37
2018-03-11T23:06:51.277Z,13.20
2018-03-11T23:09:19.422Z,14.43
2018-03-11T23:11:48.299Z,12.53
2018-03-11T23:14:16.411Z,15.57
2018-03-11T23:16:44.496Z,17.27
2018-03-11T23:19:21.328Z,14.83
2018-03-11T23:21:49.404Z,13.90
2018-03-11T23:24:17.544Z,12.87
2018-03-11T23:26:46.423Z,11.60
2018-03-11T23:29:14.564Z,12.90
2018-03-11T23:31:42.750Z,14.30
2018-03-11T23:34:10.876Z,14.07
2018-03-11T23:36:39.090Z,13.50
2018-03-11T23:39:08.048Z,13.90
2018-03-11T23:41:36.165Z,12.23
2018-03-11T23:44:04.293Z,12.47
2018-03-11T23:46:32.478Z,12.50
2018-03-11T23:49:00.987Z,13.67
2018-03-11T23:51:29.108Z,12.20
2018-03-11T23:53:57.276Z,11.37
2018-03-11T23:56:25.462Z,11.40
2018-03-11T23:58:53.572Z,13.17
